createdAt,value
2022-12-12T00:02:30.406Z,18.10
2022-12-12T00:05:00.918Z,18.70
2022-12-12T00:07:31.404Z,17.50
2022-12-12T00:10:02.100Z,17.80
2022-12-12T00:12:32.551Z,17.20
2022-12-12T00:15:03.335Z,15.10
2022-12-12T00:17:33.754Z,17.00
2022-12-12T00:20:04.695Z,17.00
2022-12-12T00:22:35.307Z,20.60
2022-12-12T00:25:06.867Z,18.90
2022-12-12T00:27:37.315Z,17.20
2022-12-12T00:30:10.049Z,17.70
2022-12-12T00:32:40.465Z,17.70
2022-12-12T00:35:11.637Z,17.60
2022-12-12T00:37:42.130Z,16.50
2022-12-12T00:40:14.678Z,15.60
2022-12-12T00:45:15.027Z,19.50
2022-12-12T00:47:45.536Z,18.10
2022-12-12T00:50:16.117Z,16.20
2022-12-12T00:52:46.499Z,16.30
2022-12-12T00:55:16.877Z,16.30
2022-12-12T00:57:47.262Z,16.60
2022-12-12T01:00:19.389Z,18.30
2022-12-12T01:02:50.047Z,15.70
2022-12-12T01:05:21.122Z,17.70
2022-12-12T01:07:51.617Z,20.10
2022-12-12T01:10:23.901Z,16.60
2022-12-12T01:12:54.349Z,17.10
2022-12-12T01:15:26.316Z,16.60
2022-12-12T01:17:56.709Z,16.20
2022-12-12T01:20:28.609Z,15.30
2022-12-12T01:22:59.070Z,15.20
2022-12-12T01:25:29.475Z,17.00
2022-12-12T01:27:59.919Z,18.90
2022-12-12T01:30:30.771Z,19.70
2022-12-12T01:33:01.367Z,18.90
2022-12-12T01:35:36.184Z,17.50
2022-12-12T01:38:06.570Z,17.70
2022-12-12T01:40:36.938Z,15.50
2022-12-12T01:43:13.087Z,16.60
2022-12-12T01:46:23.918Z,16.50
2022-12-12T01:48:57.512Z,15.00
2022-12-12T01:51:28.956Z,16.20
2022-12-12T01:54:05.361Z,16.40
2022-12-12T01:56:36.299Z,19.60
2022-12-12T01:59:08.252Z,18.10
2022-12-12T02:01:39.381Z,14.10
2022-12-12T02:04:11.163Z,13.60
2022-12-12T02:06:41.808Z,15.20
2022-12-12T02:09:15.674Z,17.00
2022-12-12T02:11:49.042Z,18.50
2022-12-12T02:14:21.620Z,16.00
2022-12-12T02:17:05.545Z,17.00
2022-12-12T02:20:02.737Z,16.20
2022-12-12T02:22:47.748Z,19.10
2022-12-12T02:25:34.375Z,21.50
2022-12-12T02:28:18.776Z,21.30
2022-12-12T02:30:56.643Z,17.10
2022-12-12T02:33:36.252Z,15.80
2022-12-12T02:36:12.924Z,16.50
2022-12-12T02:38:51.738Z,13.30
2022-12-12T02:41:28.365Z,15.70
2022-12-12T02:44:07.383Z,19.40
2022-12-12T02:46:42.343Z,20.20
2022-12-12T02:49:16.541Z,19.80
2022-12-12T02:51:48.718Z,18.00
2022-12-12T02:54:22.513Z,18.20
2022-12-12T02:56:55.696Z,17.80
2022-12-12T02:59:29.275Z,16.30
2022-12-12T03:02:19.507Z,19.20
2022-12-12T03:05:20.860Z,18.00
2022-12-12T03:08:01.667Z,16.70
2022-12-12T03:10:46.459Z,18.30
2022-12-12T03:13:24.260Z,16.90
2022-12-12T03:16:03.655Z,17.30
2022-12-12T03:18:37.567Z,19.10
2022-12-12T03:21:11.715Z,19.60
2022-12-12T03:23:45.032Z,20.10
2022-12-12T03:26:19.133Z,19.70
2022-12-12T03:28:53.440Z,18.10
2022-12-12T03:31:31.569Z,16.40
2022-12-12T03:34:05.480Z,17.20
2022-12-12T03:36:38.977Z,17.10
2022-12-12T03:39:12.938Z,17.50
2022-12-12T03:41:44.907Z,15.50
2022-12-12T03:44:20.308Z,14.80
2022-12-12T03:46:54.429Z,19.20
2022-12-12T03:49:27.872Z,19.30
2022-12-12T03:52:02.238Z,19.70
2022-12-12T03:54:37.844Z,18.40
2022-12-12T03:57:10.810Z,16.70
2022-12-12T03:59:45.216Z,15.90
2022-12-12T04:02:20.586Z,17.50
2022-12-12T04:04:57.804Z,15.50
2022-12-12T04:07:32.511Z,15.80
2022-12-12T04:10:20.549Z,17.90
2022-12-12T04:13:00.428Z,18.50
2022-12-12T04:15:47.219Z,16.40
2022-12-12T04:18:23.088Z,14.20
2022-12-12T04:21:18.373Z,15.90
2022-12-12T04:23:56.906Z,15.20
2022-12-12T04:26:41.642Z,14.40
2022-12-12T04:29:30.441Z,15.20
2022-12-12T04:32:05.028Z,14.50
2022-12-12T04:34:39.938Z,16.10
2022-12-12T04:37:13.487Z,17.70
2022-12-12T04:39:44.782Z,15.70
2022-12-12T04:42:18.284Z,14.30
2022-12-12T04:44:49.127Z,14.60
2022-12-12T04:47:20.475Z,14.80
2022-12-12T04:49:52.488Z,15.30
2022-12-12T04:52:23.922Z,13.40
2022-12-12T04:55:00.992Z,13.90
2022-12-12T04:57:35.247Z,14.50
2022-12-12T05:00:07.375Z,14.20
2022-12-12T05:02:42.809Z,15.10
2022-12-12T05:05:15.998Z,17.40
2022-12-12T05:07:50.202Z,15.90
2022-12-12T05:10:21.339Z,15.10
2022-12-12T05:12:53.920Z,14.80
2022-12-12T05:15:24.391Z,14.30
2022-12-12T05:18:00.612Z,13.60
2022-12-12T05:20:32.576Z,14.10
2022-12-12T05:23:02.997Z,16.00
2022-12-12T05:25:33.527Z,17.00
2022-12-12T05:28:04.062Z,19.50
2022-12-12T05:30:34.935Z,16.10
2022-12-12T05:33:05.432Z,15.60
2022-12-12T05:35:36.613Z,14.60
2022-12-12T05:38:07.046Z,15.80
2022-12-12T05:40:37.450Z,15.40
2022-12-12T05:43:07.804Z,15.30
2022-12-12T05:45:38.186Z,17.10
2022-12-12T05:48:08.807Z,18.50
2022-12-12T05:50:39.180Z,14.80
2022-12-12T05:53:09.606Z,16.50
2022-12-12T05:55:39.935Z,15.50
2022-12-12T05:58:10.689Z,13.50
2022-12-12T06:00:41.071Z,14.30
2022-12-12T06:03:11.413Z,14.50
2022-12-12T06:05:41.808Z,17.10
2022-12-12T06:08:12.245Z,19.20
2022-12-12T06:10:42.664Z,16.50
2022-12-12T06:13:12.970Z,14.20
2022-12-12T06:15:43.842Z,14.90
2022-12-12T06:18:14.307Z,13.50
2022-12-12T06:20:44.703Z,14.60
2022-12-12T06:23:15.133Z,15.20
2022-12-12T06:25:45.835Z,16.10
2022-12-12T06:28:16.276Z,17.50
2022-12-12T06:30:46.721Z,19.60
2022-12-12T06:33:17.267Z,22.40
2022-12-12T06:35:57.826Z,18.30
2022-12-12T06:38:28.713Z,20.90
2022-12-12T06:40:59.257Z,21.60
2022-12-12T06:43:30.234Z,21.00
2022-12-12T06:46:04.765Z,23.40
2022-12-12T06:48:36.246Z,22.70
2022-12-12T06:51:09.790Z,24.20
2022-12-12T06:53:40.272Z,25.70
2022-12-12T06:56:13.716Z,25.70
2022-12-12T06:58:44.191Z,19.10
2022-12-12T07:01:19.740Z,20.90
2022-12-12T07:03:51.743Z,21.50
2022-12-12T07:06:24.300Z,22.30
2022-12-12T07:08:55.218Z,20.20
2022-12-12T07:11:28.539Z,21.40
2022-12-12T07:14:01.422Z,25.50
2022-12-12T07:16:31.937Z,23.80
2022-12-12T07:19:02.537Z,28.30
2022-12-12T07:21:32.919Z,23.40
2022-12-12T07:24:03.596Z,21.10
2022-12-12T07:26:37.175Z,22.50
2022-12-12T07:29:07.578Z,18.90
2022-12-12T07:31:38.132Z,20.60
2022-12-12T07:34:08.752Z,15.00
2022-12-12T07:36:39.379Z,18.40
2022-12-12T07:39:09.860Z,17.90
2022-12-12T07:41:40.835Z,25.40
2022-12-12T07:44:11.992Z,22.30
2022-12-12T07:46:42.509Z,23.00
2022-12-12T07:49:15.617Z,19.20
2022-12-12T07:51:49.134Z,21.70
2022-12-12T07:54:24.652Z,21.00
2022-12-12T07:56:55.617Z,20.90
2022-12-12T07:59:26.437Z,20.60
2022-12-12T08:01:56.950Z,21.10
2022-12-12T08:04:27.474Z,22.50
2022-12-12T08:07:04.002Z,17.30
2022-12-12T08:09:38.460Z,23.60
2022-12-12T08:12:15.443Z,19.10
2022-12-12T08:14:45.952Z,18.40
2022-12-12T08:17:16.726Z,16.60
2022-12-12T08:19:55.048Z,21.50
2022-12-12T08:22:25.666Z,20.80
2022-12-12T08:24:56.114Z,22.40
2022-12-12T08:27:27.104Z,22.70
2022-12-12T08:29:57.598Z,21.40
2022-12-12T08:32:28.000Z,20.20
2022-12-12T08:34:59.668Z,20.60
2022-12-12T08:37:30.044Z,19.50
2022-12-12T08:40:00.440Z,18.90
2022-12-12T08:42:30.916Z,20.10
2022-12-12T08:45:01.423Z,25.20
2022-12-12T08:47:32.192Z,22.70
2022-12-12T08:50:02.605Z,18.30
2022-12-12T08:52:33.058Z,20.30
2022-12-12T08:55:04.120Z,18.10
2022-12-12T08:57:34.573Z,21.00
2022-12-12T09:00:06.957Z,20.10
2022-12-12T09:02:37.471Z,19.30
2022-12-12T09:05:09.072Z,20.50
2022-12-12T09:07:39.491Z,20.70
2022-12-12T09:10:11.384Z,24.10
2022-12-12T09:12:42.301Z,23.80
2022-12-12T09:15:13.564Z,20.00
2022-12-12T09:17:44.148Z,21.40
2022-12-12T09:20:14.561Z,22.00
2022-12-12T09:22:45.412Z,22.60
2022-12-12T09:25:16.316Z,22.10
2022-12-12T09:27:47.258Z,20.60
2022-12-12T09:30:18.104Z,21.20
2022-12-12T09:32:48.555Z,24.20
2022-12-12T09:35:19.533Z,23.10
2022-12-12T09:37:49.885Z,19.40
2022-12-12T09:40:22.532Z,19.10
2022-12-12T09:42:54.335Z,19.60
2022-12-12T09:45:25.182Z,22.20
2022-12-12T09:47:57.268Z,23.30
2022-12-12T09:50:30.732Z,20.10
2022-12-12T09:53:02.992Z,17.70
2022-12-12T09:55:40.436Z,24.20
2022-12-12T09:58:19.392Z,19.50
2022-12-12T10:00:51.439Z,21.60
2022-12-12T10:03:27.831Z,23.20
2022-12-12T10:06:28.653Z,18.90
2022-12-12T10:09:02.541Z,20.20
2022-12-12T10:11:56.067Z,23.60
2022-12-12T10:14:32.969Z,24.00
2022-12-12T10:17:05.392Z,22.20
2022-12-12T10:19:39.725Z,23.60
2022-12-12T10:22:16.180Z,21.50
2022-12-12T10:24:48.397Z,17.60
2022-12-12T10:27:18.832Z,21.50
2022-12-12T10:29:50.276Z,24.90
2022-12-12T10:32:30.482Z,21.50
2022-12-12T10:35:16.967Z,23.20
2022-12-12T10:37:57.207Z,24.30
2022-12-12T10:40:37.037Z,21.70
2022-12-12T10:43:11.916Z,22.50
2022-12-12T10:45:53.623Z,20.40
2022-12-12T10:48:24.055Z,21.90
2022-12-12T10:50:57.838Z,23.30
2022-12-12T10:53:28.624Z,21.20
2022-12-12T10:56:02.651Z,26.70
2022-12-12T10:58:39.087Z,23.20
2022-12-12T11:01:14.320Z,20.80
2022-12-12T11:03:48.101Z,22.10
2022-12-12T11:06:21.961Z,23.10
2022-12-12T11:08:57.644Z,24.30
2022-12-12T11:11:29.106Z,19.30
2022-12-12T11:14:01.571Z,21.20
2022-12-12T11:16:41.398Z,24.00
2022-12-12T11:19:20.319Z,22.20
2022-12-12T11:21:51.113Z,21.70
2022-12-12T11:24:23.164Z,20.10
2022-12-12T11:26:57.403Z,22.30
2022-12-12T11:29:44.480Z,21.10
2022-12-12T11:32:17.466Z,22.40
2022-12-12T11:37:18.742Z,20.90
2022-12-12T11:39:52.026Z,18.50
2022-12-12T11:42:26.547Z,21.80
2022-12-12T11:45:03.704Z,21.70
2022-12-12T11:47:38.819Z,21.70
2022-12-12T11:50:21.342Z,22.00
2022-12-12T11:52:53.125Z,21.40
2022-12-12T11:55:29.142Z,19.20
2022-12-12T11:58:13.226Z,17.60
2022-12-12T12:00:47.478Z,21.20
2022-12-12T12:03:25.785Z,17.40
2022-12-12T12:06:07.926Z,18.60
2022-12-12T12:08:50.745Z,16.80
2022-12-12T12:14:18.900Z,18.50
2022-12-12T12:16:55.457Z,19.90
2022-12-12T12:19:30.777Z,22.10
2022-12-12T12:22:06.901Z,20.40
2022-12-12T12:24:54.125Z,21.20
2022-12-12T12:27:29.928Z,23.10
2022-12-12T12:30:10.762Z,20.60
2022-12-12T12:32:50.135Z,19.50
2022-12-12T12:35:29.919Z,21.20
2022-12-12T12:38:10.723Z,23.10
2022-12-12T12:40:53.256Z,22.70
2022-12-12T12:43:41.743Z,21.60
2022-12-12T12:46:15.868Z,23.60
2022-12-12T12:48:49.134Z,22.90
2022-12-12T12:51:23.274Z,20.50
2022-12-12T12:53:57.293Z,23.30
2022-12-12T12:56:29.478Z,20.60
2022-12-12T12:59:03.393Z,26.60
2022-12-12T13:01:37.737Z,24.40
2022-12-12T13:04:15.267Z,22.00
2022-12-12T13:06:49.441Z,22.30
2022-12-12T13:09:28.028Z,22.50
2022-12-12T13:12:02.876Z,20.40
2022-12-12T13:14:41.302Z,22.00
2022-12-12T13:17:18.235Z,20.00
2022-12-12T13:19:50.359Z,22.10
2022-12-12T13:22:30.835Z,23.80
2022-12-12T13:25:08.500Z,23.80
2022-12-12T13:27:45.985Z,24.40
2022-12-12T13:30:22.992Z,23.10
2022-12-12T13:33:33.575Z,24.10
2022-12-12T13:36:11.662Z,23.90
2022-12-12T13:38:42.947Z,23.20
2022-12-12T13:41:13.771Z,23.80
2022-12-12T13:43:49.236Z,19.80
2022-12-12T13:46:40.601Z,22.70
2022-12-12T13:49:31.240Z,19.80
2022-12-12T13:52:32.771Z,25.20
2022-12-12T13:55:21.837Z,23.30
2022-12-12T13:58:17.521Z,21.00
2022-12-12T14:00:48.470Z,24.50
2022-12-12T14:03:34.658Z,26.10
2022-12-12T14:06:18.066Z,23.80
2022-12-12T14:08:52.025Z,24.50
2022-12-12T14:11:35.706Z,21.90
2022-12-12T14:14:09.266Z,24.40
2022-12-12T14:16:39.920Z,24.20
2022-12-12T14:19:24.534Z,23.70
2022-12-12T14:21:55.026Z,22.60
2022-12-12T14:24:59.398Z,24.10
2022-12-12T14:28:04.028Z,21.50
2022-12-12T14:30:45.273Z,18.70
2022-12-12T14:33:43.515Z,15.40
2022-12-12T14:36:26.635Z,17.60
2022-12-12T14:41:32.648Z,12.60
2022-12-12T14:44:38.147Z,16.30
2022-12-12T14:47:00.564Z,15.20
2022-12-12T14:49:31.163Z,13.10
2022-12-12T14:52:02.257Z,14.60
2022-12-12T14:54:33.288Z,15.50
2022-12-12T14:57:03.869Z,17.70
2022-12-12T14:59:37.002Z,20.70
2022-12-12T15:02:19.816Z,15.60
2022-12-12T15:04:53.181Z,15.70
2022-12-12T15:07:28.480Z,19.40
2022-12-12T15:09:59.116Z,16.20
2022-12-12T15:12:35.556Z,15.70
2022-12-12T15:15:08.238Z,14.40
2022-12-12T15:17:44.337Z,16.30
2022-12-12T15:20:20.264Z,14.00
2022-12-12T15:22:57.754Z,16.30
2022-12-12T15:25:31.402Z,17.00
2022-12-12T15:28:03.056Z,17.80
2022-12-12T15:30:36.980Z,13.60
2022-12-12T15:33:08.924Z,16.30
2022-12-12T15:35:39.395Z,15.10
2022-12-12T15:38:14.805Z,17.50
2022-12-12T15:40:48.495Z,18.30
2022-12-12T15:43:23.259Z,17.10
2022-12-12T15:45:56.440Z,16.60
2022-12-12T15:48:29.965Z,18.40
2022-12-12T15:51:03.141Z,19.80
2022-12-12T15:53:36.255Z,17.80
2022-12-12T15:56:09.897Z,34.80
2022-12-12T15:58:42.582Z,23.80
2022-12-12T16:01:21.386Z,18.60
2022-12-12T16:04:00.460Z,18.50
2022-12-12T16:06:33.282Z,17.90
2022-12-12T16:09:08.798Z,19.40
2022-12-12T16:11:45.855Z,21.00
2022-12-12T16:14:40.294Z,15.20
2022-12-12T16:17:17.083Z,14.10
2022-12-12T16:23:48.866Z,24.30
2022-12-12T16:26:21.183Z,21.70
2022-12-12T16:28:54.303Z,16.30
2022-12-12T16:33:55.873Z,14.30
2022-12-12T16:36:29.421Z,17.10
2022-12-12T16:39:01.086Z,17.60
2022-12-12T16:41:33.612Z,22.70
2022-12-12T16:44:05.288Z,24.80
2022-12-12T16:46:38.281Z,14.40
2022-12-12T16:49:15.296Z,20.60
2022-12-12T16:51:48.522Z,18.80
2022-12-12T16:54:20.967Z,20.50
2022-12-12T16:56:54.517Z,20.60
2022-12-12T16:59:27.267Z,18.20
2022-12-12T17:01:59.359Z,20.00
2022-12-12T17:04:31.705Z,21.30
2022-12-12T17:07:08.316Z,19.80
2022-12-12T17:16:56.179Z,22.40
2022-12-12T17:19:27.934Z,21.80
2022-12-12T17:21:58.496Z,21.60
2022-12-12T17:24:28.883Z,19.30
2022-12-12T17:26:59.555Z,23.40
2022-12-12T17:29:30.012Z,24.40
2022-12-12T17:32:00.444Z,24.30
2022-12-12T17:34:30.917Z,31.80
2022-12-12T17:37:01.416Z,33.80
2022-12-12T17:39:31.886Z,31.30
2022-12-12T17:42:02.424Z,32.70
2022-12-12T17:44:33.003Z,25.40
2022-12-12T17:47:03.604Z,21.80
2022-12-12T17:49:34.168Z,21.70
2022-12-12T17:52:04.947Z,27.60
2022-12-12T17:54:35.735Z,25.50
2022-12-12T17:57:06.374Z,23.20
2022-12-12T17:59:40.439Z,23.40
2022-12-12T18:02:13.212Z,23.50
2022-12-12T18:04:43.746Z,21.70
2022-12-12T18:07:14.389Z,21.80
2022-12-12T18:09:45.062Z,20.80
2022-12-12T18:12:16.188Z,23.80
2022-12-12T18:14:46.848Z,25.70
2022-12-12T18:17:17.518Z,25.60
2022-12-12T18:19:49.361Z,21.60
2022-12-12T18:22:20.662Z,21.60
2022-12-12T18:24:52.404Z,19.90
2022-12-12T18:27:22.895Z,21.70
2022-12-12T18:29:53.507Z,18.80
2022-12-12T18:32:24.070Z,23.10
2022-12-12T18:34:55.465Z,21.90
2022-12-12T18:38:17.397Z,24.30
2022-12-12T18:41:06.851Z,30.00
2022-12-12T18:43:38.393Z,31.50
2022-12-12T18:46:10.185Z,25.70
2022-12-12T18:48:41.828Z,23.70
2022-12-12T18:51:14.253Z,24.70
2022-12-12T18:53:46.323Z,20.90
2022-12-12T18:56:19.233Z,21.50
2022-12-12T19:01:21.301Z,18.90
2022-12-12T19:06:23.925Z,13.70
2022-12-12T19:08:55.645Z,14.80
2022-12-12T19:11:26.124Z,16.30
2022-12-12T19:13:56.730Z,22.30
2022-12-12T19:16:27.372Z,25.90
2022-12-12T19:18:57.918Z,32.50
2022-12-12T19:21:29.027Z,30.60
2022-12-12T19:24:01.989Z,23.00
2022-12-12T19:29:03.405Z,18.10
2022-12-12T19:31:35.815Z,20.10
2022-12-12T19:34:08.144Z,18.40
2022-12-12T19:36:39.060Z,23.10
2022-12-12T19:39:11.176Z,28.30
2022-12-12T19:41:42.162Z,29.00
2022-12-12T19:44:14.885Z,25.30
2022-12-12T19:46:46.367Z,21.30
2022-12-12T19:49:18.117Z,19.60
2022-12-12T19:51:48.850Z,20.00
2022-12-12T19:54:20.902Z,21.10
2022-12-12T19:56:51.523Z,19.20
2022-12-12T19:59:22.314Z,20.60
2022-12-12T20:01:54.585Z,22.90
2022-12-12T20:04:26.572Z,31.50
2022-12-12T20:06:57.163Z,25.20
2022-12-12T20:09:30.015Z,19.60
2022-12-12T20:14:33.239Z,15.60
2022-12-12T20:19:34.571Z,13.40
2022-12-12T20:22:05.086Z,14.80
2022-12-12T20:24:37.509Z,20.90
2022-12-12T20:27:08.960Z,21.80
2022-12-12T20:29:39.531Z,22.30
2022-12-12T20:32:11.230Z,15.10
2022-12-12T20:34:41.822Z,14.30
2022-12-12T20:37:16.719Z,13.80
2022-12-12T20:39:50.461Z,12.00
2022-12-12T20:42:20.980Z,13.70
2022-12-12T20:44:52.741Z,14.30
2022-12-12T20:47:24.627Z,18.70
2022-12-12T20:49:55.579Z,19.30
2022-12-12T20:52:26.135Z,16.90
2022-12-12T20:54:58.036Z,12.90
2022-12-12T20:57:28.811Z,12.80
2022-12-12T20:59:59.475Z,11.60
2022-12-12T21:02:30.468Z,10.30
2022-12-12T21:05:01.170Z,11.60
2022-12-12T21:07:31.980Z,15.10
2022-12-12T21:10:02.538Z,18.30
2022-12-12T21:12:33.323Z,22.60
2022-12-12T21:15:03.953Z,21.80
2022-12-12T21:17:34.561Z,15.80
2022-12-12T21:20:06.899Z,16.20
2022-12-12T21:22:38.022Z,15.50
2022-12-12T21:25:09.471Z,15.20
2022-12-12T21:27:40.010Z,19.80
2022-12-12T21:30:11.937Z,22.90
2022-12-12T21:32:42.447Z,30.30
2022-12-12T21:35:13.366Z,28.10
2022-12-12T21:37:44.069Z,26.40
2022-12-12T21:40:16.516Z,17.50
2022-12-12T21:42:48.880Z,14.10
2022-12-12T21:45:19.526Z,14.70
2022-12-12T21:47:50.132Z,14.60
2022-12-12T21:50:22.020Z,12.70
2022-12-12T21:53:12.528Z,16.80
2022-12-12T21:55:43.018Z,20.00
2022-12-12T21:58:13.561Z,24.10
2022-12-12T22:00:44.027Z,20.40
2022-12-12T22:03:14.664Z,14.30
2022-12-12T22:05:45.107Z,14.90
2022-12-12T22:08:15.572Z,13.70
2022-12-12T22:10:45.971Z,13.80
2022-12-12T22:13:24.756Z,14.30
2022-12-12T22:16:02.604Z,15.20
2022-12-12T22:18:34.185Z,21.20
2022-12-12T22:21:06.922Z,24.80
2022-12-12T22:23:38.721Z,19.50
2022-12-12T22:26:17.180Z,15.30
2022-12-12T22:28:47.628Z,16.10
2022-12-12T22:31:18.186Z,14.70
2022-12-12T22:33:49.375Z,16.00
2022-12-12T22:36:21.704Z,15.30
2022-12-12T22:38:54.918Z,16.80
2022-12-12T22:41:25.870Z,21.50
2022-12-12T22:43:58.884Z,23.60
2022-12-12T22:46:29.846Z,21.30
2022-12-12T22:49:01.571Z,15.50
2022-12-12T22:51:33.284Z,14.40
2022-12-12T22:54:05.559Z,15.50
2022-12-12T22:56:37.749Z,13.90
2022-12-12T22:59:09.130Z,12.20
2022-12-12T23:01:39.567Z,17.10
2022-12-12T23:04:12.055Z,21.80
2022-12-12T23:06:42.867Z,24.30
2022-12-12T23:09:21.043Z,22.10
2022-12-12T23:11:52.692Z,17.30
2022-12-12T23:14:24.844Z,15.10
2022-12-12T23:16:55.991Z,15.50
2022-12-12T23:19:28.875Z,14.00
2022-12-12T23:21:59.259Z,14.50
2022-12-12T23:24:29.706Z,16.10
2022-12-12T23:27:00.379Z,21.10
2022-12-12T23:29:31.933Z,22.60
2022-12-12T23:32:02.925Z,21.80
2022-12-12T23:34:33.484Z,13.70
2022-12-12T23:37:04.039Z,13.30
2022-12-12T23:39:34.423Z,11.70
2022-12-12T23:42:04.934Z,13.80
2022-12-12T23:44:35.569Z,11.80
2022-12-12T23:47:06.077Z,14.70
2022-12-12T23:49:36.560Z,18.60
2022-12-12T23:52:07.402Z,20.70
2022-12-12T23:54:37.864Z,22.30
2022-12-12T23:57:08.303Z,20.40
2022-12-12T23:59:38.719Z,16.30
